createdAt,value
2023-03-20T00:03:58.965Z,6.76
2023-03-20T00:09:07.409Z,6.64
2023-03-20T00:14:15.061Z,6.54
2023-03-20T00:19:27.989Z,6.40
2023-03-20T00:24:31.716Z,6.31
2023-03-20T00:29:34.767Z,6.21
2023-03-20T00:34:37.792Z,6.14
2023-03-20T00:39:41.667Z,6.06
2023-03-20T00:44:55.971Z,5.96
2023-03-20T00:49:59.384Z,5.90
2023-03-20T00:55:02.350Z,5.85
2023-03-20T01:00:25.713Z,5.81
2023-03-20T01:05:29.126Z,5.77
2023-03-20T01:10:33.327Z,5.74
2023-03-20T01:15:37.255Z,5.69
2023-03-20T01:20:40.819Z,5.63
2023-03-20T01:25:43.863Z,5.56
2023-03-20T01:30:48.330Z,5.49
2023-03-20T01:35:51.757Z,5.43
2023-03-20T01:41:14.219Z,5.36
2023-03-20T01:46:30.785Z,5.32
2023-03-20T01:51:36.035Z,5.28
2023-03-20T01:56:48.277Z,5.24
2023-03-20T02:01:51.694Z,5.22
2023-03-20T02:06:54.758Z,5.16
2023-03-20T02:11:59.306Z,5.09
2023-03-20T02:17:09.495Z,5.02
2023-03-20T02:22:49.004Z,5.00
2023-03-20T02:28:33.405Z,5.00
2023-03-20T02:34:04.356Z,4.97
2023-03-20T02:39:28.322Z,4.92
2023-03-20T02:44:40.286Z,4.82
2023-03-20T02:50:00.016Z,4.72
2023-03-20T02:55:29.204Z,4.64
2023-03-20T03:00:41.179Z,4.53
2023-03-20T03:05:54.267Z,4.43
2023-03-20T03:11:08.779Z,4.34
2023-03-20T03:16:19.802Z,4.26
2023-03-20T03:21:23.820Z,4.29
2023-03-20T03:26:32.477Z,4.32
2023-03-20T03:31:38.255Z,4.26
2023-03-20T03:37:02.808Z,4.19
2023-03-20T03:42:17.334Z,4.11
2023-03-20T03:47:25.843Z,3.97
2023-03-20T03:52:31.613Z,3.86
2023-03-20T03:57:42.367Z,3.79
2023-03-20T04:02:51.307Z,3.72
2023-03-20T04:07:58.200Z,3.67
2023-03-20T04:13:02.446Z,3.63
2023-03-20T04:18:06.096Z,3.59
2023-03-20T04:23:09.022Z,3.54
2023-03-20T04:28:12.008Z,3.49
2023-03-20T04:33:15.198Z,3.45
2023-03-20T04:38:19.673Z,3.40
2023-03-20T04:43:22.771Z,3.33
2023-03-20T04:48:27.904Z,3.31
2023-03-20T04:53:30.942Z,3.32
2023-03-20T04:58:36.069Z,3.30
2023-03-20T05:03:39.668Z,3.32
2023-03-20T05:08:42.702Z,3.32
2023-03-20T05:13:46.107Z,3.35
2023-03-20T05:18:49.357Z,3.37
2023-03-20T05:23:52.168Z,3.43
2023-03-20T05:28:55.228Z,3.52
2023-03-20T05:33:58.509Z,3.65
2023-03-20T05:39:01.590Z,3.76
2023-03-20T05:44:04.905Z,3.89
2023-03-20T05:49:08.788Z,4.01
2023-03-20T05:54:11.764Z,4.16
2023-03-20T05:59:14.944Z,4.32
2023-03-20T06:04:17.895Z,4.49
2023-03-20T06:09:20.927Z,4.67
2023-03-20T06:14:24.101Z,4.91
2023-03-20T06:19:27.181Z,5.26
2023-03-20T06:24:30.504Z,5.64
2023-03-20T06:29:33.495Z,6.00
2023-03-20T06:34:37.649Z,6.30
2023-03-20T06:39:41.680Z,6.61
2023-03-20T06:44:44.555Z,6.86
2023-03-20T06:49:47.622Z,7.15
2023-03-20T06:54:52.290Z,7.51
2023-03-20T06:59:55.341Z,7.86
2023-03-20T07:04:58.154Z,8.26
2023-03-20T07:10:01.648Z,8.66
2023-03-20T07:15:05.886Z,9.00
2023-03-20T07:20:10.157Z,9.34
2023-03-20T07:25:13.590Z,9.65
2023-03-20T07:30:18.300Z,10.01
2023-03-20T07:35:22.571Z,10.38
2023-03-20T07:40:26.206Z,10.65
2023-03-20T07:45:29.432Z,10.86
2023-03-20T07:50:32.457Z,11.12
2023-03-20T07:55:35.930Z,11.50
2023-03-20T08:00:39.159Z,11.89
2023-03-20T08:05:42.071Z,12.30
2023-03-20T08:10:45.395Z,12.78
2023-03-20T08:15:48.349Z,13.04
2023-03-20T08:20:51.450Z,13.44
2023-03-20T08:25:54.943Z,13.79
2023-03-20T08:30:58.033Z,14.04
2023-03-20T08:36:01.042Z,14.24
2023-03-20T08:41:04.396Z,14.53
2023-03-20T08:46:08.356Z,14.96
2023-03-20T08:51:11.606Z,15.31
2023-03-20T08:56:14.602Z,15.73
2023-03-20T09:01:17.612Z,16.02
2023-03-20T09:06:20.869Z,16.25
2023-03-20T09:11:24.532Z,16.48
2023-03-20T09:16:28.277Z,16.88
2023-03-20T09:21:31.299Z,17.03
2023-03-20T09:26:34.321Z,17.23
2023-03-20T09:31:37.541Z,17.58
2023-03-20T09:36:41.940Z,17.76
2023-03-20T09:41:57.392Z,18.03
2023-03-20T09:47:23.974Z,18.17
2023-03-20T09:52:34.691Z,18.45
2023-03-20T09:57:45.511Z,18.85
2023-03-20T10:03:01.931Z,19.15
2023-03-20T10:08:11.293Z,19.30
2023-03-20T10:13:52.932Z,19.52
2023-03-20T10:19:23.547Z,19.50
2023-03-20T10:24:42.449Z,19.36
2023-03-20T10:30:45.340Z,19.34
2023-03-20T10:36:10.513Z,19.49
2023-03-20T10:41:21.749Z,19.64
2023-03-20T10:46:31.813Z,19.90
2023-03-20T10:51:58.495Z,19.98
2023-03-20T10:57:06.269Z,20.04
2023-03-20T11:02:15.057Z,20.34
2023-03-20T11:07:35.086Z,20.47
2023-03-20T11:12:45.372Z,20.20
2023-03-20T11:18:08.291Z,20.10
2023-03-20T11:23:20.639Z,19.66
2023-03-20T11:28:41.308Z,19.37
2023-03-20T11:34:07.515Z,19.36
2023-03-20T11:39:16.861Z,19.36
2023-03-20T11:44:36.636Z,19.48
2023-03-20T11:49:57.772Z,19.55
2023-03-20T11:55:06.860Z,19.50
2023-03-20T12:00:24.508Z,19.34
2023-03-20T12:05:36.763Z,19.06
2023-03-20T12:10:44.507Z,19.18
2023-03-20T12:15:56.274Z,19.53
2023-03-20T12:21:15.227Z,19.47
2023-03-20T12:26:27.143Z,19.46
2023-03-20T12:31:58.431Z,19.38
2023-03-20T12:37:02.380Z,19.30
2023-03-20T12:42:16.854Z,19.01
2023-03-20T12:48:16.977Z,18.79
2023-03-20T12:53:38.073Z,18.70
2023-03-20T12:58:52.887Z,18.72
2023-03-20T13:04:19.011Z,18.81
2023-03-20T13:09:37.535Z,18.54
2023-03-20T13:15:29.040Z,18.25
2023-03-20T13:21:04.125Z,18.17
2023-03-20T13:26:34.701Z,18.11
2023-03-20T13:32:10.379Z,18.19
2023-03-20T13:37:33.340Z,18.48
2023-03-20T13:42:59.353Z,18.76
2023-03-20T13:48:22.007Z,19.04
2023-03-20T13:53:43.256Z,19.13
2023-03-20T13:59:03.865Z,19.09
2023-03-20T14:04:16.226Z,19.01
2023-03-20T14:09:28.109Z,18.87
2023-03-20T14:14:50.880Z,18.63
2023-03-20T14:19:55.184Z,18.21
2023-03-20T14:25:09.676Z,17.98
2023-03-20T14:30:30.998Z,17.95
2023-03-20T14:35:43.821Z,18.24
2023-03-20T14:40:54.214Z,18.77
2023-03-20T14:46:42.177Z,19.12
2023-03-20T14:51:48.292Z,19.33
2023-03-20T14:56:53.177Z,19.25
2023-03-20T15:02:03.291Z,18.89
2023-03-20T15:07:39.770Z,18.71
2023-03-20T15:12:44.218Z,18.93
2023-03-20T15:17:50.005Z,19.02
2023-03-20T15:22:57.726Z,19.14
2023-03-20T15:28:01.632Z,19.27
2023-03-20T15:33:05.422Z,19.26
2023-03-20T15:38:09.985Z,19.13
2023-03-20T15:43:24.295Z,18.93
2023-03-20T15:48:27.477Z,18.62
2023-03-20T15:53:36.165Z,18.26
2023-03-20T15:58:42.128Z,17.92
2023-03-20T16:03:45.355Z,17.57
2023-03-20T16:09:06.087Z,17.22
2023-03-20T16:14:23.692Z,16.83
2023-03-20T16:19:29.111Z,16.52
2023-03-20T16:24:38.473Z,16.19
2023-03-20T16:29:50.949Z,15.89
2023-03-20T16:34:59.678Z,15.62
2023-03-20T16:40:28.567Z,15.43
2023-03-20T16:45:44.860Z,15.19
2023-03-20T16:51:00.224Z,14.92
2023-03-20T16:56:10.472Z,14.70
2023-03-20T17:01:23.280Z,14.52
2023-03-20T17:06:43.497Z,14.30
2023-03-20T17:11:57.962Z,14.12
2023-03-20T17:17:01.128Z,13.90
2023-03-20T17:22:16.294Z,13.79
2023-03-20T17:27:21.226Z,13.66
2023-03-20T17:32:24.882Z,13.54
2023-03-20T17:37:30.285Z,13.44
2023-03-20T17:42:33.647Z,13.33
2023-03-20T17:47:38.312Z,13.23
2023-03-20T17:52:41.502Z,13.14
2023-03-20T17:57:44.700Z,13.07
2023-03-20T18:02:48.075Z,12.98
2023-03-20T18:07:51.224Z,12.94
2023-03-20T18:12:54.226Z,12.87
2023-03-20T18:17:57.453Z,12.80
2023-03-20T18:23:00.834Z,12.76
2023-03-20T18:28:08.071Z,12.70
2023-03-20T18:33:14.378Z,12.59
2023-03-20T18:38:17.857Z,12.54
2023-03-20T18:43:22.900Z,12.48
2023-03-20T18:48:25.894Z,12.48
2023-03-20T18:53:30.278Z,12.47
2023-03-20T18:58:33.330Z,12.48
2023-03-20T19:03:39.475Z,12.52
2023-03-20T19:08:44.892Z,12.51
2023-03-20T19:13:52.358Z,12.54
2023-03-20T19:19:01.558Z,12.53
2023-03-20T19:24:06.630Z,12.51
2023-03-20T19:29:13.891Z,12.48
2023-03-20T19:34:51.935Z,12.47
2023-03-20T19:39:40.200Z,12.50
2023-03-20T19:44:43.016Z,12.49
2023-03-20T19:49:46.924Z,12.52
2023-03-20T19:55:01.789Z,12.61
2023-03-20T20:05:37.605Z,12.62
2023-03-20T20:10:50.730Z,12.53
2023-03-20T20:15:55.393Z,12.50
2023-03-20T20:21:59.926Z,12.45
2023-03-20T20:26:22.133Z,12.36
2023-03-20T20:31:31.790Z,12.22
2023-03-20T20:37:21.028Z,12.02
2023-03-20T20:41:59.202Z,11.92
2023-03-20T20:47:02.291Z,11.71
2023-03-20T20:52:05.634Z,11.44
2023-03-20T20:57:14.330Z,11.19
2023-03-20T21:02:17.774Z,11.05
2023-03-20T21:07:21.387Z,10.94
2023-03-20T21:12:36.442Z,10.87
2023-03-20T21:17:59.465Z,10.95
2023-03-20T21:23:03.362Z,11.02
2023-03-20T21:28:06.776Z,11.23
2023-03-20T21:33:09.916Z,11.52
2023-03-20T21:43:36.429Z,11.90
2023-03-20T22:00:05.361Z,11.92
2023-03-20T22:05:28.800Z,11.83
2023-03-20T22:11:03.456Z,11.83
2023-03-20T22:32:35.022Z,11.22
2023-03-20T22:38:00.403Z,11.20
2023-03-20T22:42:57.452Z,11.29
2023-03-20T22:47:59.525Z,11.36
2023-03-20T22:53:02.502Z,11.43
2023-03-20T22:58:07.875Z,11.46
2023-03-20T23:03:25.768Z,11.44
2023-03-20T23:08:42.445Z,11.42
2023-03-20T23:13:51.643Z,11.36
2023-03-20T23:18:54.741Z,11.29
2023-03-20T23:23:57.773Z,11.23
2023-03-20T23:29:03.445Z,11.15
2023-03-20T23:34:06.613Z,11.09
2023-03-20T23:39:13.169Z,11.02
2023-03-20T23:44:16.149Z,10.93
2023-03-20T23:49:19.206Z,10.84
2023-03-20T23:54:22.990Z,10.86
2023-03-20T23:59:25.852Z,10.91
